TimeCDT,TemperatureF,Dew PointF,Humidity,Sea Level PressureIn,VisibilityMPH,Wind Direction,Wind SpeedMPH,Gust SpeedMPH,PrecipitationIn,Events,Conditions,WindDirDegrees,DateUTC
12:55 AM,17.1,14.0,88,30.39,10.0,Calm,Calm,-,N/A,,Mostly Cloudy,0,2012-10-28 05:55:00
1:55 AM,18.0,15.1,88,30.38,10.0,Calm,Calm,-,N/A,,Overcast,0,2012-10-28 06:55:00
2:55 AM,16.0,12.9,88,30.38,10.0,Calm,Calm,-,N/A,,Scattered Clouds,0,2012-10-28 07:55:00
3:55 AM,18.0,15.1,88,30.37,10.0,Calm,Calm,-,N/A,,Overcast,0,2012-10-28 08:55:00
4:55 AM,21.0,18.0,88,30.38,10.0,Calm,Calm,-,N/A,,Overcast,0,2012-10-28 09:55:00
5:55 AM,21.9,18.0,85,30.38,10.0,Calm,Calm,-,N/A,,Overcast,0,2012-10-28 10:55:00
6:55 AM,23.0,19.0,85,30.38,10.0,Calm,Calm,-,N/A,,Overcast,0,2012-10-28 11:55:00
7:55 AM,24.1,19.9,84,30.38,10.0,Calm,Calm,-,N/A,,Overcast,0,2012-10-28 12:55:00
8:55 AM,24.1,21.0,88,30.39,10.0,Calm,Calm,-,N/A,,Overcast,0,2012-10-28 13:55:00
9:55 AM,24.8,19.4,80,30.32,10.0,Calm,Calm,-,N/A,,Overcast,0,2012-10-28 14:55:00
10:55 AM,27.0,18.0,69,30.39,10.0,NW,5.8,-,N/A,,Overcast,320,2012-10-28 15:55:00
11:55 AM,30.0,15.1,54,30.38,10.0,NNW,5.8,-,N/A,,Overcast,340,2012-10-28 16:55:00
12:55 PM,28.9,15.1,56,30.38,10.0,Calm,Calm,-,N/A,,Overcast,0,2012-10-28 17:55:00
1:55 PM,30.0,15.1,54,30.37,10.0,Calm,Calm,-,N/A,,Overcast,0,2012-10-28 18:55:00
2:55 PM,30.9,17.1,57,30.36,10.0,NNW,4.6,-,N/A,,Overcast,330,2012-10-28 19:55:00
3:55 PM,32.0,17.1,54,30.37,10.0,Variable,3.5,-,N/A,,Partly Cloudy,0,2012-10-28 20:55:00
4:55 PM,30.9,17.1,57,30.37,10.0,West,3.5,-,N/A,,Clear,260,2012-10-28 21:55:00
5:55 PM,28.9,17.1,61,30.37,10.0,Calm,Calm,-,N/A,,Clear,0,2012-10-28 22:55:00
6:55 PM,21.9,17.1,82,30.38,10.0,Calm,Calm,-,N/A,,Clear,0,2012-10-28 23:55:00
7:55 PM,19.9,16.0,85,30.38,10.0,Calm,Calm,-,N/A,,Clear,0,2012-10-29 00:55:00
8:55 PM,21.9,18.0,85,30.39,10.0,Calm,Calm,-,N/A,,Overcast,0,2012-10-29 01:55:00
9:55 PM,21.9,19.0,89,30.39,9.0,Calm,Calm,-,N/A,,Overcast,0,2012-10-29 02:55:00
10:55 PM,23.0,18.0,81,30.39,10.0,SE,3.5,-,N/A,,Overcast,130,2012-10-29 03:55:00
11:55 PM,23.0,18.0,81,30.38,10.0,East,5.8,-,N/A,,Clear,80,2012-10-29 04:55:00